sensor_id;sensor_type;location;lat;lon;timestamp;P1;durP1;ratioP1;P2;durP2;ratioP2
22965;SDS011;11649;48.090;9.754;2022-12-16T00:00:03;23.55;;;15.38;;
22965;SDS011;11649;48.090;9.754;2022-12-16T00:02:31;25.08;;;16.15;;
22965;SDS011;11649;48.090;9.754;2022-12-16T00:04:58;25.92;;;16.65;;
22965;SDS011;11649;48.090;9.754;2022-12-16T00:07:25;29.00;;;17.48;;
22965;SDS011;11649;48.090;9.754;2022-12-16T00:09:51;27.45;;;17.67;;
22965;SDS011;11649;48.090;9.754;2022-12-16T00:12:19;28.77;;;17.67;;
22965;SDS011;11649;48.090;9.754;2022-12-16T00:14:46;27.63;;;17.40;;
22965;SDS011;11649;48.090;9.754;2022-12-16T00:17:13;26.63;;;17.75;;
22965;SDS011;11649;48.090;9.754;2022-12-16T00:19:40;26.92;;;17.33;;
22965;SDS011;11649;48.090;9.754;2022-12-16T00:22:06;27.88;;;17.08;;
22965;SDS011;11649;48.090;9.754;2022-12-16T00:24:33;26.95;;;17.20;;
22965;SDS011;11649;48.090;9.754;2022-12-16T00:27:00;25.25;;;17.00;;
22965;SDS011;11649;48.090;9.754;2022-12-16T00:29:27;27.80;;;16.65;;
22965;SDS011;11649;48.090;9.754;2022-12-16T00:31:54;28.40;;;18.17;;
22965;SDS011;11649;48.090;9.754;2022-12-16T00:34:21;28.25;;;18.05;;
22965;SDS011;11649;48.090;9.754;2022-12-16T00:36:47;34.10;;;20.08;;
22965;SDS011;11649;48.090;9.754;2022-12-16T00:39:14;29.35;;;18.92;;
22965;SDS011;11649;48.090;9.754;2022-12-16T00:41:41;32.10;;;19.52;;
22965;SDS011;11649;48.090;9.754;2022-12-16T00:44:08;30.00;;;19.60;;
22965;SDS011;11649;48.090;9.754;2022-12-16T00:46:35;28.08;;;18.25;;
22965;SDS011;11649;48.090;9.754;2022-12-16T00:49:01;28.20;;;18.30;;
22965;SDS011;11649;48.090;9.754;2022-12-16T00:51:28;29.30;;;18.02;;
22965;SDS011;11649;48.090;9.754;2022-12-16T00:53:55;27.98;;;17.48;;
22965;SDS011;11649;48.090;9.754;2022-12-16T00:56:22;26.98;;;16.77;;
22965;SDS011;11649;48.090;9.754;2022-12-16T00:58:49;28.63;;;17.48;;
22965;SDS011;11649;48.090;9.754;2022-12-16T01:01:15;28.40;;;18.00;;
22965;SDS011;11649;48.090;9.754;2022-12-16T01:03:43;28.08;;;18.17;;
22965;SDS011;11649;48.090;9.754;2022-12-16T01:06:11;30.95;;;18.85;;
22965;SDS011;11649;48.090;9.754;2022-12-16T01:08:39;27.90;;;17.95;;
22965;SDS011;11649;48.090;9.754;2022-12-16T01:11:14;30.83;;;18.67;;
22965;SDS011;11649;48.090;9.754;2022-12-16T01:13:42;26.08;;;16.83;;
22965;SDS011;11649;48.090;9.754;2022-12-16T01:16:09;28.65;;;17.75;;
22965;SDS011;11649;48.090;9.754;2022-12-16T01:18:36;29.38;;;18.40;;
22965;SDS011;11649;48.090;9.754;2022-12-16T01:21:05;29.25;;;18.17;;
22965;SDS011;11649;48.090;9.754;2022-12-16T01:23:33;30.08;;;18.67;;
22965;SDS011;11649;48.090;9.754;2022-12-16T01:26:01;27.10;;;18.25;;
22965;SDS011;11649;48.090;9.754;2022-12-16T01:28:28;31.13;;;18.63;;
22965;SDS011;11649;48.090;9.754;2022-12-16T01:30:55;28.80;;;18.60;;
22965;SDS011;11649;48.090;9.754;2022-12-16T01:33:27;29.75;;;19.13;;
22965;SDS011;11649;48.090;9.754;2022-12-16T01:36:00;33.55;;;19.70;;
22965;SDS011;11649;48.090;9.754;2022-12-16T01:38:29;30.35;;;18.35;;
22965;SDS011;11649;48.090;9.754;2022-12-16T01:40:56;28.20;;;17.60;;
22965;SDS011;11649;48.090;9.754;2022-12-16T01:43:24;27.67;;;17.50;;
22965;SDS011;11649;48.090;9.754;2022-12-16T01:46:01;29.65;;;17.92;;
22965;SDS011;11649;48.090;9.754;2022-12-16T01:51:20;27.33;;;18.27;;
22965;SDS011;11649;48.090;9.754;2022-12-16T01:54:19;26.90;;;17.45;;
22965;SDS011;11649;48.090;9.754;2022-12-16T01:56:50;29.42;;;18.38;;
22965;SDS011;11649;48.090;9.754;2022-12-16T01:59:21;30.02;;;18.70;;
22965;SDS011;11649;48.090;9.754;2022-12-16T02:01:51;29.92;;;18.40;;
22965;SDS011;11649;48.090;9.754;2022-12-16T02:04:19;26.92;;;17.80;;
22965;SDS011;11649;48.090;9.754;2022-12-16T02:06:46;28.95;;;18.98;;
22965;SDS011;11649;48.090;9.754;2022-12-16T02:09:13;29.92;;;18.77;;
22965;SDS011;11649;48.090;9.754;2022-12-16T02:17:12;31.98;;;20.27;;
22965;SDS011;11649;48.090;9.754;2022-12-16T02:22:49;33.83;;;21.35;;
22965;SDS011;11649;48.090;9.754;2022-12-16T02:29:21;35.72;;;21.75;;
22965;SDS011;11649;48.090;9.754;2022-12-16T02:39:52;33.40;;;21.05;;
22965;SDS011;11649;48.090;9.754;2022-12-16T02:42:28;35.42;;;22.55;;
22965;SDS011;11649;48.090;9.754;2022-12-16T02:47:33;36.17;;;21.83;;
22965;SDS011;11649;48.090;9.754;2022-12-16T02:49:59;34.30;;;22.30;;
22965;SDS011;11649;48.090;9.754;2022-12-16T02:52:28;38.58;;;22.75;;
22965;SDS011;11649;48.090;9.754;2022-12-16T02:54:58;35.28;;;21.83;;
22965;SDS011;11649;48.090;9.754;2022-12-16T03:00:02;34.35;;;21.27;;
22965;SDS011;11649;48.090;9.754;2022-12-16T03:05:32;36.15;;;23.48;;
22965;SDS011;11649;48.090;9.754;2022-12-16T03:08:13;37.80;;;23.55;;
22965;SDS011;11649;48.090;9.754;2022-12-16T03:10:46;38.42;;;24.35;;
22965;SDS011;11649;48.090;9.754;2022-12-16T03:13:16;39.10;;;23.60;;
22965;SDS011;11649;48.090;9.754;2022-12-16T03:15:46;39.70;;;24.10;;
22965;SDS011;11649;48.090;9.754;2022-12-16T03:18:14;39.92;;;24.80;;
22965;SDS011;11649;48.090;9.754;2022-12-16T03:23:23;36.03;;;23.02;;
22965;SDS011;11649;48.090;9.754;2022-12-16T03:28:37;39.80;;;23.88;;
22965;SDS011;11649;48.090;9.754;2022-12-16T03:31:19;39.65;;;24.35;;
22965;SDS011;11649;48.090;9.754;2022-12-16T03:34:03;37.53;;;23.58;;
22965;SDS011;11649;48.090;9.754;2022-12-16T03:36:33;38.67;;;23.52;;
22965;SDS011;11649;48.090;9.754;2022-12-16T03:39:03;38.72;;;23.50;;
22965;SDS011;11649;48.090;9.754;2022-12-16T03:41:32;37.42;;;22.88;;
22965;SDS011;11649;48.090;9.754;2022-12-16T03:44:00;39.22;;;23.38;;
22965;SDS011;11649;48.090;9.754;2022-12-16T03:46:27;35.60;;;22.33;;
22965;SDS011;11649;48.090;9.754;2022-12-16T03:48:54;37.40;;;23.15;;
22965;SDS011;11649;48.090;9.754;2022-12-16T03:51:21;39.83;;;24.50;;
22965;SDS011;11649;48.090;9.754;2022-12-16T03:53:47;38.88;;;23.75;;
22965;SDS011;11649;48.090;9.754;2022-12-16T03:56:14;34.42;;;22.55;;
22965;SDS011;11649;48.090;9.754;2022-12-16T03:58:41;37.15;;;22.92;;
22965;SDS011;11649;48.090;9.754;2022-12-16T04:01:08;39.10;;;24.05;;
22965;SDS011;11649;48.090;9.754;2022-12-16T04:03:36;37.45;;;23.88;;
22965;SDS011;11649;48.090;9.754;2022-12-16T04:06:03;36.95;;;23.40;;
22965;SDS011;11649;48.090;9.754;2022-12-16T04:08:31;38.83;;;24.33;;
22965;SDS011;11649;48.090;9.754;2022-12-16T04:10:58;37.00;;;22.75;;
22965;SDS011;11649;48.090;9.754;2022-12-16T04:13:43;37.55;;;23.52;;
22965;SDS011;11649;48.090;9.754;2022-12-16T04:16:28;37.03;;;23.20;;
22965;SDS011;11649;48.090;9.754;2022-12-16T04:19:19;36.08;;;23.75;;
22965;SDS011;11649;48.090;9.754;2022-12-16T04:22:17;41.05;;;24.33;;
22965;SDS011;11649;48.090;9.754;2022-12-16T04:25:18;34.88;;;21.98;;
22965;SDS011;11649;48.090;9.754;2022-12-16T04:27:47;36.08;;;23.40;;
22965;SDS011;11649;48.090;9.754;2022-12-16T04:30:18;38.60;;;24.02;;
22965;SDS011;11649;48.090;9.754;2022-12-16T04:33:18;40.03;;;24.30;;
22965;SDS011;11649;48.090;9.754;2022-12-16T04:35:59;37.55;;;23.92;;
22965;SDS011;11649;48.090;9.754;2022-12-16T04:38:45;38.30;;;22.80;;
22965;SDS011;11649;48.090;9.754;2022-12-16T04:41:30;37.03;;;22.83;;
22965;SDS011;11649;48.090;9.754;2022-12-16T04:44:15;36.17;;;21.90;;
22965;SDS011;11649;48.090;9.754;2022-12-16T04:47:01;37.53;;;22.92;;
22965;SDS011;11649;48.090;9.754;2022-12-16T04:49:47;33.80;;;21.65;;
22965;SDS011;11649;48.090;9.754;2022-12-16T04:52:32;38.95;;;23.13;;
22965;SDS011;11649;48.090;9.754;2022-12-16T04:55:18;35.53;;;22.00;;
22965;SDS011;11649;48.090;9.754;2022-12-16T04:58:04;38.05;;;23.33;;
22965;SDS011;11649;48.090;9.754;2022-12-16T05:00:49;36.97;;;23.05;;
22965;SDS011;11649;48.090;9.754;2022-12-16T05:03:35;34.33;;;22.13;;
22965;SDS011;11649;48.090;9.754;2022-12-16T05:06:21;34.90;;;21.63;;
22965;SDS011;11649;48.090;9.754;2022-12-16T05:09:06;37.60;;;22.15;;
22965;SDS011;11649;48.090;9.754;2022-12-16T05:11:52;36.38;;;22.98;;
22965;SDS011;11649;48.090;9.754;2022-12-16T05:14:37;34.65;;;21.80;;
22965;SDS011;11649;48.090;9.754;2022-12-16T05:17:23;36.55;;;22.30;;
22965;SDS011;11649;48.090;9.754;2022-12-16T05:20:08;34.60;;;22.23;;
22965;SDS011;11649;48.090;9.754;2022-12-16T05:22:54;34.22;;;22.15;;
22965;SDS011;11649;48.090;9.754;2022-12-16T05:25:40;36.47;;;22.33;;
22965;SDS011;11649;48.090;9.754;2022-12-16T05:28:26;36.85;;;22.77;;
22965;SDS011;11649;48.090;9.754;2022-12-16T05:31:11;35.47;;;22.25;;
22965;SDS011;11649;48.090;9.754;2022-12-16T05:33:57;36.78;;;22.60;;
22965;SDS011;11649;48.090;9.754;2022-12-16T05:36:42;36.58;;;22.88;;
22965;SDS011;11649;48.090;9.754;2022-12-16T05:39:28;38.05;;;22.83;;
22965;SDS011;11649;48.090;9.754;2022-12-16T05:42:13;39.03;;;24.00;;
22965;SDS011;11649;48.090;9.754;2022-12-16T05:44:58;37.20;;;22.88;;
22965;SDS011;11649;48.090;9.754;2022-12-16T05:47:46;38.65;;;23.40;;
22965;SDS011;11649;48.090;9.754;2022-12-16T05:50:32;38.58;;;23.27;;
22965;SDS011;11649;48.090;9.754;2022-12-16T05:53:20;41.22;;;23.52;;
22965;SDS011;11649;48.090;9.754;2022-12-16T05:56:05;37.90;;;22.88;;
22965;SDS011;11649;48.090;9.754;2022-12-16T05:58:50;42.13;;;23.77;;
22965;SDS011;11649;48.090;9.754;2022-12-16T06:01:35;39.97;;;23.95;;
22965;SDS011;11649;48.090;9.754;2022-12-16T06:04:21;37.75;;;23.02;;
22965;SDS011;11649;48.090;9.754;2022-12-16T06:07:06;39.95;;;24.35;;
22965;SDS011;11649;48.090;9.754;2022-12-16T06:09:52;41.10;;;24.20;;
22965;SDS011;11649;48.090;9.754;2022-12-16T06:12:37;42.70;;;25.27;;
22965;SDS011;11649;48.090;9.754;2022-12-16T06:15:23;40.38;;;24.00;;
22965;SDS011;11649;48.090;9.754;2022-12-16T06:18:08;41.00;;;25.02;;
22965;SDS011;11649;48.090;9.754;2022-12-16T06:20:55;43.15;;;25.88;;
22965;SDS011;11649;48.090;9.754;2022-12-16T06:23:40;43.70;;;26.00;;
22965;SDS011;11649;48.090;9.754;2022-12-16T06:26:25;45.42;;;27.58;;
22965;SDS011;11649;48.090;9.754;2022-12-16T06:29:11;41.92;;;25.05;;
22965;SDS011;11649;48.090;9.754;2022-12-16T06:31:56;43.60;;;24.67;;
22965;SDS011;11649;48.090;9.754;2022-12-16T06:34:41;39.35;;;24.67;;
22965;SDS011;11649;48.090;9.754;2022-12-16T06:37:27;43.63;;;26.38;;
22965;SDS011;11649;48.090;9.754;2022-12-16T06:40:13;40.78;;;24.17;;
22965;SDS011;11649;48.090;9.754;2022-12-16T06:42:58;41.22;;;25.02;;
22965;SDS011;11649;48.090;9.754;2022-12-16T06:45:44;40.05;;;24.40;;
22965;SDS011;11649;48.090;9.754;2022-12-16T06:48:29;40.30;;;23.98;;
22965;SDS011;11649;48.090;9.754;2022-12-16T06:51:15;43.88;;;25.30;;
22965;SDS011;11649;48.090;9.754;2022-12-16T06:54:00;41.05;;;25.17;;
22965;SDS011;11649;48.090;9.754;2022-12-16T06:56:45;38.35;;;24.05;;
22965;SDS011;11649;48.090;9.754;2022-12-16T06:59:31;41.17;;;24.67;;
22965;SDS011;11649;48.090;9.754;2022-12-16T07:02:16;39.78;;;23.73;;
22965;SDS011;11649;48.090;9.754;2022-12-16T07:05:02;38.92;;;23.92;;
22965;SDS011;11649;48.090;9.754;2022-12-16T07:07:48;37.80;;;23.30;;
22965;SDS011;11649;48.090;9.754;2022-12-16T07:10:35;36.45;;;22.58;;
22965;SDS011;11649;48.090;9.754;2022-12-16T07:13:38;33.70;;;20.88;;
22965;SDS011;11649;48.090;9.754;2022-12-16T07:16:24;33.75;;;20.60;;
22965;SDS011;11649;48.090;9.754;2022-12-16T07:19:09;32.40;;;20.00;;
22965;SDS011;11649;48.090;9.754;2022-12-16T07:21:54;33.10;;;21.02;;
22965;SDS011;11649;48.090;9.754;2022-12-16T07:24:40;33.13;;;21.05;;
22965;SDS011;11649;48.090;9.754;2022-12-16T07:27:25;32.85;;;21.23;;
22965;SDS011;11649;48.090;9.754;2022-12-16T07:30:10;32.38;;;20.70;;
22965;SDS011;11649;48.090;9.754;2022-12-16T07:32:56;31.88;;;20.83;;
22965;SDS011;11649;48.090;9.754;2022-12-16T07:35:42;34.15;;;22.02;;
22965;SDS011;11649;48.090;9.754;2022-12-16T07:38:27;32.83;;;21.63;;
22965;SDS011;11649;48.090;9.754;2022-12-16T07:41:13;35.35;;;22.27;;
22965;SDS011;11649;48.090;9.754;2022-12-16T07:43:58;33.80;;;22.13;;
22965;SDS011;11649;48.090;9.754;2022-12-16T07:46:44;39.85;;;24.50;;
22965;SDS011;11649;48.090;9.754;2022-12-16T07:49:29;38.17;;;24.15;;
22965;SDS011;11649;48.090;9.754;2022-12-16T07:52:15;39.83;;;24.35;;
22965;SDS011;11649;48.090;9.754;2022-12-16T07:55:01;39.38;;;24.17;;
22965;SDS011;11649;48.090;9.754;2022-12-16T07:57:49;39.47;;;24.35;;
22965;SDS011;11649;48.090;9.754;2022-12-16T08:00:35;37.00;;;23.60;;
22965;SDS011;11649;48.090;9.754;2022-12-16T08:03:21;39.15;;;24.77;;
22965;SDS011;11649;48.090;9.754;2022-12-16T08:06:06;38.72;;;24.40;;
22965;SDS011;11649;48.090;9.754;2022-12-16T08:08:51;36.67;;;23.27;;
22965;SDS011;11649;48.090;9.754;2022-12-16T08:11:37;39.85;;;25.90;;
22965;SDS011;11649;48.090;9.754;2022-12-16T08:14:22;38.83;;;24.00;;
22965;SDS011;11649;48.090;9.754;2022-12-16T08:17:07;39.10;;;24.38;;
22965;SDS011;11649;48.090;9.754;2022-12-16T08:19:53;37.50;;;22.60;;
22965;SDS011;11649;48.090;9.754;2022-12-16T08:22:39;37.33;;;23.23;;
22965;SDS011;11649;48.090;9.754;2022-12-16T08:25:24;36.63;;;23.38;;
22965;SDS011;11649;48.090;9.754;2022-12-16T08:28:10;34.38;;;20.67;;
22965;SDS011;11649;48.090;9.754;2022-12-16T08:30:55;34.63;;;22.13;;
22965;SDS011;11649;48.090;9.754;2022-12-16T08:33:41;31.65;;;20.27;;
22965;SDS011;11649;48.090;9.754;2022-12-16T08:36:26;33.97;;;21.63;;
22965;SDS011;11649;48.090;9.754;2022-12-16T08:39:11;32.67;;;20.90;;
22965;SDS011;11649;48.090;9.754;2022-12-16T08:41:57;35.38;;;21.38;;
22965;SDS011;11649;48.090;9.754;2022-12-16T08:44:42;33.20;;;21.55;;
22965;SDS011;11649;48.090;9.754;2022-12-16T08:47:27;33.03;;;20.45;;
22965;SDS011;11649;48.090;9.754;2022-12-16T08:50:13;33.85;;;20.90;;
22965;SDS011;11649;48.090;9.754;2022-12-16T08:52:58;32.72;;;21.48;;
22965;SDS011;11649;48.090;9.754;2022-12-16T08:55:44;32.45;;;20.45;;
22965;SDS011;11649;48.090;9.754;2022-12-16T08:58:29;33.80;;;21.50;;
22965;SDS011;11649;48.090;9.754;2022-12-16T09:01:14;32.42;;;20.52;;
22965;SDS011;11649;48.090;9.754;2022-12-16T09:04:00;32.00;;;20.45;;
22965;SDS011;11649;48.090;9.754;2022-12-16T09:06:46;30.02;;;19.88;;
22965;SDS011;11649;48.090;9.754;2022-12-16T09:09:31;30.00;;;19.88;;
22965;SDS011;11649;48.090;9.754;2022-12-16T09:12:16;30.23;;;19.63;;
22965;SDS011;11649;48.090;9.754;2022-12-16T09:15:02;32.75;;;20.10;;
22965;SDS011;11649;48.090;9.754;2022-12-16T09:17:54;26.77;;;18.55;;
22965;SDS011;11649;48.090;9.754;2022-12-16T09:20:39;29.10;;;19.13;;
22965;SDS011;11649;48.090;9.754;2022-12-16T09:23:25;31.45;;;20.30;;
22965;SDS011;11649;48.090;9.754;2022-12-16T09:26:10;31.95;;;20.45;;
22965;SDS011;11649;48.090;9.754;2022-12-16T09:28:56;30.08;;;20.58;;
22965;SDS011;11649;48.090;9.754;2022-12-16T09:31:41;29.95;;;20.10;;
22965;SDS011;11649;48.090;9.754;2022-12-16T09:34:26;26.80;;;18.70;;
22965;SDS011;11649;48.090;9.754;2022-12-16T09:37:12;28.85;;;19.50;;
22965;SDS011;11649;48.090;9.754;2022-12-16T09:39:57;28.48;;;20.00;;
22965;SDS011;11649;48.090;9.754;2022-12-16T09:46:06;27.48;;;19.17;;
22965;SDS011;11649;48.090;9.754;2022-12-16T09:51:58;26.95;;;18.75;;
22965;SDS011;11649;48.090;9.754;2022-12-16T09:54:45;27.38;;;19.02;;
22965;SDS011;11649;48.090;9.754;2022-12-16T09:57:32;26.77;;;18.67;;
22965;SDS011;11649;48.090;9.754;2022-12-16T10:00:24;28.65;;;19.30;;
22965;SDS011;11649;48.090;9.754;2022-12-16T10:03:20;28.85;;;19.75;;
22965;SDS011;11649;48.090;9.754;2022-12-16T10:12:17;28.05;;;19.50;;
22965;SDS011;11649;48.090;9.754;2022-12-16T10:15:28;21.73;;;14.77;;
22965;SDS011;11649;48.090;9.754;2022-12-16T10:19:16;27.10;;;18.70;;
22965;SDS011;11649;48.090;9.754;2022-12-16T10:24:54;27.50;;;19.10;;
22965;SDS011;11649;48.090;9.754;2022-12-16T10:27:53;29.50;;;19.98;;
22965;SDS011;11649;48.090;9.754;2022-12-16T10:30:44;26.67;;;18.73;;
22965;SDS011;11649;48.090;9.754;2022-12-16T10:33:29;27.40;;;18.92;;
22965;SDS011;11649;48.090;9.754;2022-12-16T10:36:16;28.20;;;19.65;;
22965;SDS011;11649;48.090;9.754;2022-12-16T10:39:15;30.88;;;20.30;;
22965;SDS011;11649;48.090;9.754;2022-12-16T10:42:12;30.15;;;20.70;;
22965;SDS011;11649;48.090;9.754;2022-12-16T10:45:25;27.70;;;19.02;;
22965;SDS011;11649;48.090;9.754;2022-12-16T10:48:20;29.63;;;20.20;;
22965;SDS011;11649;48.090;9.754;2022-12-16T10:51:22;29.95;;;20.92;;
22965;SDS011;11649;48.090;9.754;2022-12-16T10:54:22;31.40;;;21.38;;
22965;SDS011;11649;48.090;9.754;2022-12-16T11:03:33;33.05;;;22.17;;
22965;SDS011;11649;48.090;9.754;2022-12-16T11:09:32;33.83;;;21.65;;
22965;SDS011;11649;48.090;9.754;2022-12-16T11:12:22;31.02;;;20.38;;
22965;SDS011;11649;48.090;9.754;2022-12-16T11:15:24;29.50;;;20.63;;
22965;SDS011;11649;48.090;9.754;2022-12-16T11:18:14;29.50;;;20.42;;
22965;SDS011;11649;48.090;9.754;2022-12-16T11:24:16;30.35;;;21.00;;
22965;SDS011;11649;48.090;9.754;2022-12-16T11:27:02;30.42;;;20.95;;
22965;SDS011;11649;48.090;9.754;2022-12-16T11:30:19;31.08;;;21.42;;
22965;SDS011;11649;48.090;9.754;2022-12-16T11:33:20;28.73;;;19.35;;
22965;SDS011;11649;48.090;9.754;2022-12-16T11:36:12;29.83;;;20.85;;
22965;SDS011;11649;48.090;9.754;2022-12-16T11:39:04;30.52;;;21.20;;
22965;SDS011;11649;48.090;9.754;2022-12-16T11:41:52;31.52;;;21.33;;
22965;SDS011;11649;48.090;9.754;2022-12-16T11:44:40;28.88;;;20.05;;
22965;SDS011;11649;48.090;9.754;2022-12-16T11:50:29;27.83;;;18.70;;
22965;SDS011;11649;48.090;9.754;2022-12-16T11:53:31;27.63;;;19.50;;
22965;SDS011;11649;48.090;9.754;2022-12-16T11:56:32;28.50;;;19.45;;
22965;SDS011;11649;48.090;9.754;2022-12-16T12:06:43;29.55;;;19.33;;
22965;SDS011;11649;48.090;9.754;2022-12-16T12:09:50;27.23;;;19.27;;
22965;SDS011;11649;48.090;9.754;2022-12-16T12:12:45;29.00;;;19.60;;
22965;SDS011;11649;48.090;9.754;2022-12-16T12:15:43;28.98;;;20.00;;
22965;SDS011;11649;48.090;9.754;2022-12-16T12:18:45;28.20;;;18.67;;
22965;SDS011;11649;48.090;9.754;2022-12-16T12:21:41;28.17;;;19.02;;
22965;SDS011;11649;48.090;9.754;2022-12-16T12:30:31;27.88;;;19.13;;
22965;SDS011;11649;48.090;9.754;2022-12-16T12:36:33;29.00;;;19.60;;
22965;SDS011;11649;48.090;9.754;2022-12-16T12:39:37;27.05;;;18.73;;
22965;SDS011;11649;48.090;9.754;2022-12-16T12:43:13;28.77;;;19.13;;
22965;SDS011;11649;48.090;9.754;2022-12-16T12:45:57;28.92;;;19.98;;
22965;SDS011;11649;48.090;9.754;2022-12-16T12:55:19;31.33;;;19.27;;
22965;SDS011;11649;48.090;9.754;2022-12-16T12:58:17;27.75;;;18.77;;
22965;SDS011;11649;48.090;9.754;2022-12-16T13:01:03;30.83;;;20.83;;
22965;SDS011;11649;48.090;9.754;2022-12-16T13:03:55;30.00;;;19.13;;
22965;SDS011;11649;48.090;9.754;2022-12-16T13:06:46;30.05;;;20.40;;
22965;SDS011;11649;48.090;9.754;2022-12-16T13:09:38;31.08;;;20.95;;
22965;SDS011;11649;48.090;9.754;2022-12-16T13:15:34;32.85;;;21.48;;
22965;SDS011;11649;48.090;9.754;2022-12-16T13:27:10;30.50;;;19.52;;
22965;SDS011;11649;48.090;9.754;2022-12-16T13:30:03;31.52;;;20.95;;
22965;SDS011;11649;48.090;9.754;2022-12-16T13:32:56;31.00;;;19.77;;
22965;SDS011;11649;48.090;9.754;2022-12-16T13:35:55;32.45;;;21.45;;
22965;SDS011;11649;48.090;9.754;2022-12-16T13:38:48;31.23;;;21.23;;
22965;SDS011;11649;48.090;9.754;2022-12-16T13:47:31;36.00;;;22.10;;
22965;SDS011;11649;48.090;9.754;2022-12-16T13:53:23;35.38;;;22.15;;
22965;SDS011;11649;48.090;9.754;2022-12-16T13:56:15;35.45;;;22.00;;
22965;SDS011;11649;48.090;9.754;2022-12-16T13:59:12;35.42;;;22.33;;
22965;SDS011;11649;48.090;9.754;2022-12-16T14:05:13;34.42;;;20.98;;
22965;SDS011;11649;48.090;9.754;2022-12-16T14:08:10;31.48;;;19.40;;
22965;SDS011;11649;48.090;9.754;2022-12-16T14:11:04;31.45;;;19.63;;
22965;SDS011;11649;48.090;9.754;2022-12-16T14:13:54;32.70;;;19.80;;
22965;SDS011;11649;48.090;9.754;2022-12-16T14:16:57;30.60;;;17.55;;
22965;SDS011;11649;48.090;9.754;2022-12-16T14:26:19;29.73;;;17.75;;
22965;SDS011;11649;48.090;9.754;2022-12-16T14:29:19;31.75;;;18.05;;
22965;SDS011;11649;48.090;9.754;2022-12-16T14:35:06;27.83;;;17.60;;
22965;SDS011;11649;48.090;9.754;2022-12-16T14:41:13;30.48;;;17.42;;
22965;SDS011;11649;48.090;9.754;2022-12-16T14:44:01;29.40;;;18.13;;
22965;SDS011;11649;48.090;9.754;2022-12-16T14:46:49;29.58;;;17.48;;
22965;SDS011;11649;48.090;9.754;2022-12-16T14:49:35;30.13;;;18.00;;
22965;SDS011;11649;48.090;9.754;2022-12-16T14:52:31;27.98;;;16.73;;
22965;SDS011;11649;48.090;9.754;2022-12-16T14:55:18;28.35;;;17.58;;
22965;SDS011;11649;48.090;9.754;2022-12-16T14:58:11;28.58;;;17.63;;
22965;SDS011;11649;48.090;9.754;2022-12-16T15:01:14;30.50;;;18.52;;
22965;SDS011;11649;48.090;9.754;2022-12-16T15:04:08;28.63;;;17.13;;
22965;SDS011;11649;48.090;9.754;2022-12-16T15:06:58;30.27;;;17.77;;
22965;SDS011;11649;48.090;9.754;2022-12-16T15:09:49;29.48;;;17.20;;
22965;SDS011;11649;48.090;9.754;2022-12-16T15:12:38;29.98;;;17.27;;
22965;SDS011;11649;48.090;9.754;2022-12-16T15:15:31;26.95;;;16.92;;
22965;SDS011;11649;48.090;9.754;2022-12-16T15:18:26;28.02;;;18.55;;
22965;SDS011;11649;48.090;9.754;2022-12-16T15:21:16;30.23;;;18.00;;
22965;SDS011;11649;48.090;9.754;2022-12-16T15:24:07;26.67;;;17.52;;
22965;SDS011;11649;48.090;9.754;2022-12-16T15:33:20;30.05;;;16.90;;
22965;SDS011;11649;48.090;9.754;2022-12-16T15:39:09;30.10;;;17.88;;
22965;SDS011;11649;48.090;9.754;2022-12-16T15:41:55;32.85;;;18.85;;
22965;SDS011;11649;48.090;9.754;2022-12-16T15:44:49;28.48;;;17.23;;
22965;SDS011;11649;48.090;9.754;2022-12-16T15:47:36;26.55;;;16.35;;
22965;SDS011;11649;48.090;9.754;2022-12-16T15:50:23;29.85;;;17.90;;
22965;SDS011;11649;48.090;9.754;2022-12-16T15:53:13;28.17;;;17.13;;
22965;SDS011;11649;48.090;9.754;2022-12-16T15:56:15;27.10;;;17.45;;
22965;SDS011;11649;48.090;9.754;2022-12-16T15:59:11;26.80;;;16.90;;
22965;SDS011;11649;48.090;9.754;2022-12-16T16:05:06;28.45;;;17.27;;
22965;SDS011;11649;48.090;9.754;2022-12-16T16:08:00;28.30;;;16.25;;
22965;SDS011;11649;48.090;9.754;2022-12-16T16:10:45;27.15;;;16.83;;
22965;SDS011;11649;48.090;9.754;2022-12-16T16:13:31;28.60;;;17.55;;
22965;SDS011;11649;48.090;9.754;2022-12-16T16:16:16;28.30;;;17.52;;
22965;SDS011;11649;48.090;9.754;2022-12-16T16:19:02;28.40;;;17.25;;
22965;SDS011;11649;48.090;9.754;2022-12-16T16:21:48;27.15;;;17.48;;
22965;SDS011;11649;48.090;9.754;2022-12-16T16:24:33;25.80;;;16.08;;
22965;SDS011;11649;48.090;9.754;2022-12-16T16:27:19;27.80;;;16.80;;
22965;SDS011;11649;48.090;9.754;2022-12-16T16:30:04;27.52;;;16.23;;
22965;SDS011;11649;48.090;9.754;2022-12-16T16:32:50;26.67;;;16.67;;
22965;SDS011;11649;48.090;9.754;2022-12-16T16:35:35;26.55;;;16.83;;
22965;SDS011;11649;48.090;9.754;2022-12-16T16:38:21;29.23;;;17.27;;
22965;SDS011;11649;48.090;9.754;2022-12-16T16:41:10;25.20;;;16.48;;
22965;SDS011;11649;48.090;9.754;2022-12-16T16:43:59;27.92;;;16.90;;
22965;SDS011;11649;48.090;9.754;2022-12-16T16:46:45;28.60;;;17.20;;
22965;SDS011;11649;48.090;9.754;2022-12-16T16:49:35;29.88;;;18.10;;
22965;SDS011;11649;48.090;9.754;2022-12-16T16:52:27;30.60;;;18.13;;
22965;SDS011;11649;48.090;9.754;2022-12-16T16:55:21;28.15;;;17.40;;
22965;SDS011;11649;48.090;9.754;2022-12-16T16:58:12;28.60;;;16.80;;
22965;SDS011;11649;48.090;9.754;2022-12-16T17:01:11;25.67;;;14.98;;
22965;SDS011;11649;48.090;9.754;2022-12-16T17:03:57;26.27;;;15.75;;
22965;SDS011;11649;48.090;9.754;2022-12-16T17:06:43;24.70;;;15.38;;
22965;SDS011;11649;48.090;9.754;2022-12-16T17:09:29;26.58;;;15.02;;
22965;SDS011;11649;48.090;9.754;2022-12-16T17:12:21;25.05;;;15.32;;
22965;SDS011;11649;48.090;9.754;2022-12-16T17:17:58;25.17;;;15.05;;
22965;SDS011;11649;48.090;9.754;2022-12-16T17:20:43;24.35;;;15.43;;
22965;SDS011;11649;48.090;9.754;2022-12-16T17:23:28;25.95;;;16.20;;
22965;SDS011;11649;48.090;9.754;2022-12-16T17:26:14;24.75;;;15.60;;
22965;SDS011;11649;48.090;9.754;2022-12-16T17:29:00;26.15;;;16.50;;
22965;SDS011;11649;48.090;9.754;2022-12-16T17:31:45;26.35;;;16.30;;
22965;SDS011;11649;48.090;9.754;2022-12-16T17:34:30;26.35;;;16.13;;
22965;SDS011;11649;48.090;9.754;2022-12-16T17:37:18;26.67;;;16.08;;
22965;SDS011;11649;48.090;9.754;2022-12-16T17:40:03;25.83;;;15.43;;
22965;SDS011;11649;48.090;9.754;2022-12-16T17:42:49;24.67;;;15.48;;
22965;SDS011;11649;48.090;9.754;2022-12-16T17:45:34;25.90;;;15.50;;
22965;SDS011;11649;48.090;9.754;2022-12-16T17:48:20;24.95;;;15.48;;
22965;SDS011;11649;48.090;9.754;2022-12-16T17:51:10;24.98;;;15.93;;
22965;SDS011;11649;48.090;9.754;2022-12-16T17:53:56;28.67;;;16.27;;
22965;SDS011;11649;48.090;9.754;2022-12-16T17:56:50;20.88;;;11.55;;
22965;SDS011;11649;48.090;9.754;2022-12-16T17:59:35;24.48;;;16.10;;
22965;SDS011;11649;48.090;9.754;2022-12-16T18:02:21;25.05;;;15.65;;
22965;SDS011;11649;48.090;9.754;2022-12-16T18:05:06;23.80;;;15.05;;
22965;SDS011;11649;48.090;9.754;2022-12-16T18:08:01;24.42;;;14.88;;
22965;SDS011;11649;48.090;9.754;2022-12-16T18:10:53;27.00;;;15.85;;
22965;SDS011;11649;48.090;9.754;2022-12-16T18:13:39;26.73;;;15.93;;
22965;SDS011;11649;48.090;9.754;2022-12-16T18:16:25;25.05;;;15.52;;
22965;SDS011;11649;48.090;9.754;2022-12-16T18:19:11;25.27;;;15.27;;
22965;SDS011;11649;48.090;9.754;2022-12-16T18:21:57;23.38;;;15.27;;